Time;durP1;ratioP1;P1;durP2;ratioP2;P2;SDS_P1;SDS_P2;PMS_P1;PMS_P2;Temp;Humidity;BMP_temperature;BMP_pressure;BME280_temperature;BME280_humidity;BME280_pressure;Samples;Min_cycle;Max_cycle;Signal;HPM_P1;HPM_P2
2023/06/26 00:01:32;;;;;;;12.52;5.78;;;563.20;2432.00;;;;;;5072771;28;20028;-75
2023/06/26 00:03:58;;;;;;;11.32;5.25;;;563.20;2432.00;;;;;;5071650;28;20501;-74
2023/06/26 00:06:27;;;;;;;10.23;6.38;;;563.20;2432.00;;;;;;5072399;28;20105;-75
2023/06/26 00:08:53;;;;;;;9.10;6.05;;;563.20;2432.00;;;;;;5072482;28;20020;-74
2023/06/26 00:11:20;;;;;;;7.50;5.28;;;563.20;2432.00;;;;;;5071709;28;20024;-74
2023/06/26 00:13:45;;;;;;;9.93;6.35;;;563.40;2432.00;;;;;;5072464;28;20150;-74
2023/06/26 00:16:11;;;;;;;11.80;6.13;;;563.40;2432.00;;;;;;5072338;28;20108;-75
2023/06/26 00:18:37;;;;;;;7.78;5.10;;;563.30;2432.00;;;;;;5072584;28;20091;-74
2023/06/26 00:21:02;;;;;;;11.63;6.30;;;563.30;2432.00;;;;;;5072284;28;20025;-76
2023/06/26 00:23:30;;;;;;;8.40;5.95;;;563.20;2432.00;;;;;;5072242;28;20032;-76
2023/06/26 00:25:56;;;;;;;9.75;6.65;;;563.20;2432.00;;;;;;5072217;28;20031;-75
2023/06/26 00:28:22;;;;;;;10.88;6.35;;;563.20;2432.00;;;;;;5072132;28;20032;-75
2023/06/26 00:30:47;;;;;;;9.50;6.60;;;563.30;2432.00;;;;;;5072039;28;20025;-73
2023/06/26 00:33:13;;;;;;;10.00;6.70;;;563.30;2432.00;;;;;;5072641;28;20462;-75
2023/06/26 00:35:39;;;;;;;11.30;6.95;;;563.30;2432.00;;;;;;5069316;28;20017;-75
2023/06/26 00:38:04;;;;;;;16.45;8.20;;;563.30;2432.00;;;;;;5072185;28;20466;-74
2023/06/26 00:40:30;;;;;;;13.13;7.38;;;563.30;2432.00;;;;;;5071953;28;20044;-76
2023/06/26 00:42:56;;;;;;;15.95;7.72;;;563.30;2432.00;;;;;;5071948;28;20085;-76
2023/06/26 00:45:22;;;;;;;15.65;8.68;;;563.30;2432.00;;;;;;5072401;28;20491;-75
2023/06/26 00:47:48;;;;;;;12.48;7.20;;;563.20;2432.00;;;;;;5071851;28;20063;-74
2023/06/26 00:50:15;;;;;;;17.65;7.68;;;563.20;2432.00;;;;;;5071757;28;20017;-74
2023/06/26 00:52:41;;;;;;;14.20;7.53;;;563.20;2432.00;;;;;;5069364;28;20360;-75
2023/06/26 00:55:08;;;;;;;12.25;6.55;;;538.50;2406.40;;;;;;5071882;28;20067;-75
2023/06/26 00:57:34;;;;;;;13.30;6.35;;;538.30;2406.40;;;;;;5072350;28;20077;-77
2023/06/26 01:00:01;;;;;;;12.40;6.78;;;538.40;2406.40;;;;;;5071674;28;20099;-75
2023/06/26 01:02:33;;;;;;;12.70;6.95;;;538.50;2406.40;;;;;;5072102;28;20125;-75
2023/06/26 01:05:03;;;;;;;12.40;7.32;;;538.50;2406.40;;;;;;5071658;28;20021;-75
2023/06/26 01:07:29;;;;;;;9.35;6.90;;;538.50;2406.40;;;;;;5071746;28;20025;-76
2023/06/26 01:09:55;;;;;;;15.18;6.65;;;538.50;2406.40;;;;;;5072174;28;20415;-75
2023/06/26 01:12:21;;;;;;;10.38;6.65;;;538.50;2406.40;;;;;;5071661;28;20025;-82
2023/06/26 01:14:47;;;;;;;15.82;5.88;;;538.50;2406.40;;;;;;5074030;28;20102;-75
2023/06/26 01:17:15;;;;;;;13.73;6.93;;;538.40;2406.40;;;;;;5075851;28;20060;-75
2023/06/26 01:19:42;;;;;;;9.30;5.85;;;538.30;2406.40;;;;;;5076106;28;20035;-74
2023/06/26 01:22:27;;;;;;;12.35;5.93;;;538.10;2406.40;;;;;;5075846;28;20025;-75
2023/06/26 01:25:11;;;;;;;12.23;5.80;;;538.20;2406.40;;;;;;5075699;28;20044;-74
2023/06/26 01:27:38;;;;;;;11.75;6.38;;;538.20;2406.40;;;;;;5075457;28;20033;-74
2023/06/26 01:30:04;;;;;;;9.05;5.80;;;538.10;2406.40;;;;;;5075891;28;20490;-75
2023/06/26 01:32:32;;;;;;;14.63;5.90;;;538.10;2406.40;;;;;;5075481;28;20024;-76
2023/06/26 01:34:59;;;;;;;10.75;6.85;;;538.10;2406.40;;;;;;5075480;28;20032;-74
2023/06/26 01:37:25;;;;;;;8.75;6.03;;;538.10;2406.40;;;;;;5075646;28;20086;-74
2023/06/26 01:39:51;;;;;;;11.73;6.35;;;538.20;2406.40;;;;;;5075448;28;20436;-74
2023/06/26 01:42:17;;;;;;;10.55;6.85;;;538.10;2406.40;;;;;;5075308;28;20108;-76
2023/06/26 01:44:46;;;;;;;11.27;6.85;;;538.10;2406.40;;;;;;5075196;28;20146;-75
2023/06/26 01:47:19;;;;;;;14.77;7.15;;;538.20;2406.40;;;;;;5073419;28;20027;-75
2023/06/26 01:49:49;;;;;;;12.48;7.43;;;538.20;2406.40;;;;;;5073346;28;20095;-75
2023/06/26 01:52:47;;;;;;;14.10;8.40;;;538.20;2406.40;;;;;;5075479;28;20086;-74
2023/06/26 01:55:36;;;;;;;15.32;7.90;;;538.20;2406.40;;;;;;5040034;28;20047;-80
2023/06/26 01:58:03;;;;;;;12.23;8.13;;;538.10;2406.40;;;;;;5038648;28;20128;-74
2023/06/26 02:00:29;;;;;;;20.65;8.65;;;538.20;2406.40;;;;;;5037810;28;20014;-77
2023/06/26 02:02:55;;;;;;;18.70;7.72;;;538.20;2406.40;;;;;;5038344;28;20104;-75
2023/06/26 02:05:20;;;;;;;12.95;8.23;;;538.30;2406.40;;;;;;5035529;28;20152;-75
2023/06/26 02:07:46;;;;;;;10.60;7.93;;;538.20;2406.40;;;;;;5037389;28;20439;-75
2023/06/26 02:10:13;;;;;;;10.15;8.02;;;538.30;2406.40;;;;;;5035593;28;20450;-76
2023/06/26 02:12:39;;;;;;;13.43;9.32;;;538.30;2406.40;;;;;;5050519;28;20029;-74
2023/06/26 02:15:06;;;;;;;14.93;8.65;;;538.20;2406.40;;;;;;5035747;28;20658;-74
2023/06/26 02:17:31;;;;;;;16.90;8.48;;;538.10;2406.40;;;;;;5039316;28;20029;-75
2023/06/26 02:19:57;;;;;;;16.15;8.45;;;538.10;2406.40;;;;;;5046551;28;20029;-74
2023/06/26 02:22:23;;;;;;;15.02;8.43;;;538.10;2406.40;;;;;;5041014;28;20104;-76
2023/06/26 02:24:48;;;;;;;18.23;9.93;;;538.00;2406.40;;;;;;5036517;28;20053;-74
2023/06/26 02:27:15;;;;;;;18.90;10.30;;;538.10;2406.40;;;;;;5038362;28;20041;-74
2023/06/26 02:29:41;;;;;;;19.02;10.48;;;538.00;2406.40;;;;;;5035386;28;20017;-75
2023/06/26 02:32:07;;;;;;;22.75;10.00;;;538.10;2406.40;;;;;;5073803;28;20020;-76
2023/06/26 02:34:33;;;;;;;17.05;11.10;;;538.10;2406.40;;;;;;5074334;28;20107;-76
2023/06/26 02:37:00;;;;;;;18.23;10.18;;;538.00;2406.40;;;;;;5074412;28;20510;-74
2023/06/26 02:39:26;;;;;;;18.17;11.48;;;538.10;2406.40;;;;;;5074623;28;20493;-75
2023/06/26 02:41:52;;;;;;;14.15;10.30;;;538.00;2406.40;;;;;;5074229;28;20545;-75
2023/06/26 02:44:17;;;;;;;23.70;10.95;;;538.00;2406.40;;;;;;5074647;28;20017;-74
2023/06/26 02:46:43;;;;;;;18.75;10.25;;;538.00;2406.40;;;;;;5073725;28;20513;-74
2023/06/26 02:49:09;;;;;;;17.58;10.38;;;538.00;2406.40;;;;;;5074172;28;20025;-75
2023/06/26 02:51:35;;;;;;;13.30;9.73;;;538.00;2406.40;;;;;;5074072;28;20023;-74
2023/06/26 02:54:01;;;;;;;16.05;10.57;;;537.90;2406.40;;;;;;5073431;28;20025;-75
2023/06/26 02:56:28;;;;;;;16.48;11.80;;;;;;;;;;5072978;28;20493;-75
2023/06/26 02:58:55;;;;;;;15.10;10.55;;;537.80;2406.40;;;;;;5073848;28;20025;-75
2023/06/26 03:01:21;;;;;;;14.88;9.75;;;537.70;2406.40;;;;;;5073290;28;20027;-75
2023/06/26 03:03:46;;;;;;;21.23;11.50;;;537.70;2406.40;;;;;;5073134;28;20028;-75
2023/06/26 03:06:13;;;;;;;14.82;9.82;;;537.70;2406.40;;;;;;5073299;28;20108;-74
2023/06/26 03:08:39;;;;;;;15.30;11.43;;;537.70;2406.40;;;;;;5073276;28;20555;-75
2023/06/26 03:11:06;;;;;;;17.70;10.90;;;537.70;2406.40;;;;;;5072860;28;20029;-74
2023/06/26 03:13:34;;;;;;;16.83;10.82;;;537.80;2406.40;;;;;;5073757;28;20099;-74
2023/06/26 03:16:00;;;;;;;20.17;11.93;;;537.80;2406.40;;;;;;5072919;28;20028;-74
2023/06/26 03:18:25;;;;;;;18.38;11.73;;;537.80;2406.40;;;;;;5072790;28;20029;-75
2023/06/26 03:20:53;;;;;;;15.40;11.70;;;537.80;2406.40;;;;;;5072931;28;20028;-75
2023/06/26 03:23:20;;;;;;;15.30;11.77;;;537.70;2406.40;;;;;;5073093;28;20016;-76
2023/06/26 03:25:46;;;;;;;16.73;10.80;;;537.90;2406.40;;;;;;5072558;28;20028;-74
2023/06/26 03:28:12;;;;;;;25.88;11.07;;;537.70;2406.40;;;;;;5071502;28;20044;-75
2023/06/26 03:30:37;;;;;;;16.58;10.27;;;537.70;2406.40;;;;;;5072256;28;20044;-74
2023/06/26 03:33:03;;;;;;;18.00;10.75;;;537.70;2406.40;;;;;;5072783;28;20025;-75
2023/06/26 03:35:29;;;;;;;16.77;10.30;;;537.70;2406.40;;;;;;5072510;28;20428;-75
2023/06/26 03:37:54;;;;;;;16.13;10.63;;;537.70;2406.40;;;;;;5072453;28;20028;-76
2023/06/26 03:40:20;;;;;;;13.23;10.65;;;537.80;2406.40;;;;;;5072660;28;20103;-74
2023/06/26 03:42:46;;;;;;;15.38;10.13;;;537.70;2406.40;;;;;;5072640;28;20104;-76
2023/06/26 03:45:11;;;;;;;15.95;10.18;;;537.60;2406.40;;;;;;5072658;28;20031;-75
2023/06/26 03:47:37;;;;;;;15.10;10.63;;;512.80;2380.80;;;;;;5072109;28;20109;-75
2023/06/26 03:50:03;;;;;;;14.20;10.57;;;512.80;2380.80;;;;;;5072547;28;20021;-75
2023/06/26 03:52:30;;;;;;;18.30;11.05;;;512.90;2380.80;;;;;;5072439;28;20482;-75
2023/06/26 03:54:57;;;;;;;22.60;11.32;;;512.80;2380.80;;;;;;5072050;28;20043;-76
2023/06/26 03:57:23;;;;;;;19.60;10.65;;;512.80;2380.80;;;;;;5072162;28;20021;-75
2023/06/26 03:59:49;;;;;;;16.08;12.00;;;512.80;2380.80;;;;;;5072280;28;20031;-77
2023/06/26 04:02:15;;;;;;;21.42;11.13;;;512.80;2380.80;;;;;;5072687;28;20020;-75
2023/06/26 04:04:40;;;;;;;15.68;11.32;;;512.80;2380.80;;;;;;5072079;28;20356;-75
2023/06/26 04:07:06;;;;;;;15.43;10.40;;;512.80;2380.80;;;;;;5072154;28;20036;-79
2023/06/26 04:09:32;;;;;;;15.48;11.32;;;512.90;2380.80;;;;;;5071811;28;20030;-79
2023/06/26 04:11:57;;;;;;;15.10;11.10;;;512.90;2380.80;;;;;;5072076;28;20501;-76
2023/06/26 04:14:23;;;;;;;16.88;10.63;;;512.90;2380.80;;;;;;5072659;28;20095;-74
2023/06/26 04:16:49;;;;;;;16.23;11.02;;;537.70;2406.40;;;;;;5071698;28;20773;-74
2023/06/26 04:19:14;;;;;;;16.95;11.85;;;537.80;2406.40;;;;;;5072284;28;20013;-75
2023/06/26 04:21:40;;;;;;;17.50;11.52;;;537.90;2406.40;;;;;;5071930;28;20017;-75
2023/06/26 04:24:06;;;;;;;16.75;11.73;;;537.90;2406.40;;;;;;5071750;28;20475;-74
2023/06/26 04:26:32;;;;;;;14.15;10.75;;;538.00;2406.40;;;;;;5071523;28;20052;-77
2023/06/26 04:28:58;;;;;;;20.08;11.10;;;538.00;2406.40;;;;;;5071629;28;20023;-78
2023/06/26 04:31:23;;;;;;;16.38;11.23;;;538.10;2406.40;;;;;;5071654;28;20028;-74
2023/06/26 04:33:50;;;;;;;19.88;11.25;;;538.10;2406.40;;;;;;5071609;28;20031;-74
2023/06/26 04:36:17;;;;;;;16.08;12.00;;;538.10;2406.40;;;;;;5069543;28;20016;-76
2023/06/26 04:38:43;;;;;;;18.48;11.43;;;538.10;2406.40;;;;;;5071205;28;20548;-74
2023/06/26 04:41:09;;;;;;;16.85;12.25;;;538.20;2406.40;;;;;;5071556;28;20028;-75
2023/06/26 04:43:35;;;;;;;19.70;11.77;;;538.20;2406.40;;;;;;5071181;28;20134;-78
2023/06/26 04:46:02;;;;;;;19.08;12.35;;;538.20;2406.40;;;;;;5071574;28;20390;-75
2023/06/26 04:48:28;;;;;;;17.98;12.20;;;538.40;2406.40;;;;;;5070083;28;20020;-74
2023/06/26 04:50:55;;;;;;;20.05;12.45;;;538.50;2406.40;;;;;;5071210;28;20051;-75
2023/06/26 04:53:22;;;;;;;17.30;12.55;;;538.50;2406.40;;;;;;5071570;28;20027;-79
2023/06/26 04:55:49;;;;;;;23.42;13.38;;;538.50;2406.40;;;;;;5071348;28;20150;-74
2023/06/26 04:58:16;;;;;;;20.30;12.95;;;538.50;2406.40;;;;;;5070737;28;20367;-75
2023/06/26 05:00:42;;;;;;;19.33;12.88;;;538.50;2406.40;;;;;;5071246;28;20379;-76
2023/06/26 05:03:09;;;;;;;17.38;13.18;;;538.40;2406.40;;;;;;5071333;28;20533;-76
2023/06/26 05:05:35;;;;;;;17.42;13.20;;;538.30;2406.40;;;;;;5074168;28;20017;-74
2023/06/26 05:08:17;;;;;;;18.73;11.77;;;538.50;2406.40;;;;;;5077533;28;20039;-74
2023/06/26 05:10:43;;;;;;;14.20;11.90;;;538.50;2406.40;;;;;;5075106;28;20012;-74
2023/06/26 05:13:08;;;;;;;19.65;13.73;;;538.40;2406.40;;;;;;5075402;28;20028;-74
2023/06/26 05:15:34;;;;;;;14.27;11.82;;;538.20;2406.40;;;;;;5084205;28;20485;-74
2023/06/26 05:18:00;;;;;;;20.77;13.05;;;563.20;2432.00;;;;;;5073959;28;20020;-75
2023/06/26 05:20:25;;;;;;;18.10;12.20;;;563.30;2432.00;;;;;;5082327;28;20032;-79
2023/06/26 05:22:52;;;;;;;17.92;12.52;;;563.30;2432.00;;;;;;5077731;28;20095;-74
2023/06/26 05:25:21;;;;;;;14.88;12.00;;;563.40;2432.00;;;;;;5074203;28;20035;-73
2023/06/26 05:27:47;;;;;;;18.30;12.43;;;563.50;2432.00;;;;;;5080105;28;20202;-72
2023/06/26 05:30:14;;;;;;;17.58;12.68;;;563.50;2432.00;;;;;;5083757;28;20047;-74
2023/06/26 05:32:41;;;;;;;20.05;12.52;;;563.60;2432.00;;;;;;5074887;28;20024;-73
2023/06/26 05:35:07;;;;;;;17.70;11.90;;;563.60;2432.00;;;;;;5078240;28;20497;-75
2023/06/26 05:37:34;;;;;;;16.05;12.75;;;563.70;2432.00;;;;;;5074256;28;20100;-74
2023/06/26 05:40:00;;;;;;;16.45;12.45;;;563.70;2432.00;;;;;;5076179;28;20508;-79
2023/06/26 05:42:27;;;;;;;25.83;14.20;;;563.80;2432.00;;;;;;5078776;28;20071;-73
2023/06/26 05:44:54;;;;;;;16.40;12.68;;;563.90;2432.00;;;;;;5075038;28;20115;-73
2023/06/26 05:47:19;;;;;;;14.75;12.30;;;564.00;2432.00;;;;;;5072782;28;20033;-74
2023/06/26 05:49:45;;;;;;;17.02;12.68;;;564.10;2432.00;;;;;;5075532;28;20467;-72
2023/06/26 05:52:11;;;;;;;20.17;12.70;;;564.10;2432.00;;;;;;5078011;28;20028;-72
2023/06/26 05:54:37;;;;;;;20.00;12.57;;;588.80;2432.00;;;;;;5083402;28;20032;-73
2023/06/26 05:57:04;;;;;;;16.60;13.13;;;588.80;2432.00;;;;;;5078015;28;20458;-74
2023/06/26 05:59:32;;;;;;;20.70;13.02;;;588.90;2432.00;;;;;;5077504;28;20534;-73
2023/06/26 06:01:58;;;;;;;17.83;12.07;;;588.90;2432.00;;;;;;5081091;28;20025;-76
2023/06/26 06:04:24;;;;;;;19.20;11.73;;;589.10;2432.00;;;;;;5076492;28;20490;-79
2023/06/26 06:06:50;;;;;;;13.77;11.30;;;589.20;2432.00;;;;;;5082260;28;20032;-74
2023/06/26 06:09:15;;;;;;;15.88;12.23;;;589.20;2432.00;;;;;;5062115;28;20032;-73
2023/06/26 06:11:41;;;;;;;14.93;10.52;;;589.30;2432.00;;;;;;5084528;28;20021;-73
2023/06/26 06:14:07;;;;;;;16.40;10.95;;;589.40;2432.00;;;;;;5084979;28;20467;-77
2023/06/26 06:16:32;;;;;;;15.38;11.88;;;589.40;2432.00;;;;;;5078217;28;20029;-74
2023/06/26 06:18:58;;;;;;;14.63;11.07;;;589.50;2432.00;;;;;;5067025;28;20032;-76
2023/06/26 06:21:24;;;;;;;14.15;9.98;;;589.50;2432.00;;;;;;5080447;28;20032;-74
2023/06/26 06:23:49;;;;;;;15.77;10.18;;;589.70;2432.00;;;;;;5078264;28;20047;-77
2023/06/26 06:26:15;;;;;;;13.73;10.20;;;614.40;2432.00;;;;;;5079766;28;20032;-73
2023/06/26 06:28:41;;;;;;;16.50;9.68;;;614.50;2432.00;;;;;;5078667;28;20036;-72
2023/06/26 06:31:07;;;;;;;12.90;9.93;;;614.60;2432.00;;;;;;5075738;28;20043;-78
2023/06/26 06:33:32;;;;;;;12.60;9.70;;;614.70;2432.00;;;;;;5084644;28;20028;-72
2023/06/26 06:35:58;;;;;;;14.15;9.65;;;614.80;2432.00;;;;;;5085864;28;20028;-73
2023/06/26 06:38:24;;;;;;;14.18;9.60;;;614.90;2432.00;;;;;;5084891;28;20028;-73
2023/06/26 06:40:50;;;;;;;13.57;9.23;;;615.00;2432.00;;;;;;5084047;28;20095;-74
2023/06/26 06:43:15;;;;;;;13.20;8.85;;;615.20;2432.00;;;;;;5080555;28;20498;-72
2023/06/26 06:45:41;;;;;;;10.73;9.00;;;615.20;2432.00;;;;;;5078459;28;20032;-74
2023/06/26 06:48:07;;;;;;;10.57;7.60;;;615.20;2432.00;;;;;;5075043;28;20032;-74
2023/06/26 06:50:32;;;;;;;10.73;8.10;;;615.30;2432.00;;;;;;5081769;28;20031;-73
2023/06/26 06:52:58;;;;;;;13.85;8.48;;;640.00;2432.00;;;;;;5082803;28;20032;-71
2023/06/26 06:55:25;;;;;;;13.32;8.00;;;640.10;2432.00;;;;;;5080549;28;20052;-75
2023/06/26 06:57:51;;;;;;;10.85;8.07;;;640.20;2432.00;;;;;;5079156;28;20059;-74
2023/06/26 07:00:17;;;;;;;10.48;7.40;;;640.30;2432.00;;;;;;5078280;28;20048;-73
2023/06/26 07:02:44;;;;;;;11.95;6.50;;;640.40;2432.00;;;;;;5082223;28;20031;-73
2023/06/26 07:05:10;;;;;;;16.23;8.55;;;640.50;2432.00;;;;;;5077394;28;20378;-74
2023/06/26 07:07:37;;;;;;;10.75;7.53;;;640.60;2432.00;;;;;;5081107;28;20032;-74
2023/06/26 07:10:14;;;;;;;10.57;8.32;;;640.80;2432.00;;;;;;5080835;28;20021;-76
2023/06/26 07:12:40;;;;;;;12.50;7.53;;;640.90;2432.00;;;;;;5085184;28;20489;-72
2023/06/26 07:15:06;;;;;;;22.35;8.98;;;665.60;2432.00;;;;;;5077628;28;20028;-73
2023/06/26 07:17:32;;;;;;;12.15;8.10;;;665.60;2432.00;;;;;;5078359;28;20121;-72
2023/06/26 07:20:00;;;;;;;10.00;7.35;;;665.70;2432.00;;;;;;5077786;28;20054;-72
2023/06/26 07:22:26;;;;;;;10.70;7.22;;;665.70;2432.00;;;;;;5077090;28;20017;-73
2023/06/26 07:24:52;;;;;;;10.98;8.07;;;665.90;2432.00;;;;;;5081038;28;20021;-73
2023/06/26 07:27:18;;;;;;;17.88;7.50;;;666.00;2432.00;;;;;;5083978;28;20078;-72
2023/06/26 07:29:45;;;;;;;14.65;7.80;;;666.20;2432.00;;;;;;5074515;28;20115;-72
2023/06/26 07:32:11;;;;;;;13.98;7.72;;;666.30;2432.00;;;;;;5077877;28;20128;-74
2023/06/26 07:34:36;;;;;;;11.63;7.35;;;666.30;2380.80;;;;;;5076605;28;20108;-72
2023/06/26 07:37:02;;;;;;;8.52;7.28;;;666.50;2406.40;;;;;;5080667;28;20032;-74
2023/06/26 07:39:28;;;;;;;16.95;8.38;;;666.50;2380.80;;;;;;5083386;28;20027;-73
2023/06/26 07:41:54;;;;;;;14.07;7.50;;;691.20;2355.20;;;;;;5077159;28;20040;-72
2023/06/26 07:44:20;;;;;;;39.85;9.38;;;691.20;2252.80;;;;;;5076196;28;20043;-71
2023/06/26 07:46:45;;;;;;;15.75;7.53;;;691.40;2304.00;;;;;;5080370;28;20024;-72
2023/06/26 07:49:11;;;;;;;11.32;7.00;;;691.50;2124.80;;;;;;5082036;28;20125;-72
2023/06/26 07:51:37;;;;;;;10.13;7.20;;;691.60;2278.40;;;;;;5076449;28;20033;-73
2023/06/26 07:54:03;;;;;;;10.70;7.78;;;691.70;2278.40;;;;;;5077656;28;20486;-72
2023/06/26 07:56:29;;;;;;;8.48;6.55;;;691.90;2124.80;;;;;;5083738;28;20060;-77
2023/06/26 07:58:57;;;;;;;12.25;7.30;;;691.90;2099.20;;;;;;5078357;28;20029;-73
2023/06/26 08:01:23;;;;;;;13.30;7.43;;;692.00;2022.40;;;;;;5083090;28;20035;-73
2023/06/26 08:03:49;;;;;;;8.50;6.28;;;692.10;2048.00;;;;;;5073568;28;20470;-73
2023/06/26 08:06:15;;;;;;;9.40;5.93;;;692.00;1945.60;;;;;;5081976;28;20040;-71
2023/06/26 08:08:40;;;;;;;7.70;6.18;;;692.00;1920.00;;;;;;5076097;28;20107;-73
2023/06/26 08:11:06;;;;;;;9.00;6.07;;;692.10;1920.00;;;;;;5082132;28;20161;-71
2023/06/26 08:13:32;;;;;;;11.70;6.40;;;716.80;1894.40;;;;;;5073448;28;20025;-72
2023/06/26 08:15:57;;;;;;;13.65;6.95;;;716.80;1868.80;;;;;;5081834;28;20064;-72
2023/06/26 08:18:23;;;;;;;11.10;6.97;;;716.80;1817.60;;;;;;5078839;28;20035;-74
2023/06/26 08:20:49;;;;;;;9.88;6.93;;;716.80;1792.00;;;;;;5079565;28;20028;-73
2023/06/26 08:23:14;;;;;;;9.18;6.20;;;716.90;1792.00;;;;;;5082768;28;20029;-72
2023/06/26 08:25:40;;;;;;;11.48;6.15;;;716.90;1766.40;;;;;;5075883;28;20056;-73
2023/06/26 08:28:06;;;;;;;9.60;6.22;;;716.80;1843.20;;;;;;5076088;28;20040;-73
2023/06/26 08:30:32;;;;;;;8.43;6.25;;;716.90;1868.80;;;;;;5078498;28;20025;-73
2023/06/26 08:32:58;;;;;;;8.07;5.78;;;717.00;1817.60;;;;;;5075378;28;20082;-74
2023/06/26 08:35:24;;;;;;;9.80;6.35;;;717.00;1740.80;;;;;;5083366;28;20462;-74
2023/06/26 08:37:49;;;;;;;9.90;5.63;;;717.00;1817.60;;;;;;5077809;28;20035;-72
2023/06/26 08:40:19;;;;;;;8.48;6.18;;;717.10;1817.60;;;;;;5081966;28;20431;-72
2023/06/26 08:42:45;;;;;;;9.35;5.47;;;717.10;1715.20;;;;;;5077214;28;20070;-72
2023/06/26 08:45:12;;;;;;;10.80;6.50;;;717.10;1689.60;;;;;;5079301;28;20024;-72
2023/06/26 08:47:38;;;;;;;7.80;5.95;;;717.20;1715.20;;;;;;5078292;28;20054;-72
2023/06/26 08:50:10;;;;;;;8.35;6.18;;;717.20;1817.60;;;;;;5078502;28;20422;-72
2023/06/26 08:52:41;;;;;;;11.35;5.95;;;717.40;1817.60;;;;;;5075000;28;20035;-72
2023/06/26 08:55:10;;;;;;;7.72;5.80;;;717.30;1792.00;;;;;;5077710;28;20044;-72
2023/06/26 08:57:36;;;;;;;8.88;6.28;;;717.50;1715.20;;;;;;5079970;28;20032;-72
2023/06/26 09:00:04;;;;;;;7.88;6.55;;;717.40;1766.40;;;;;;5081952;28;20025;-72
2023/06/26 09:02:30;;;;;;;11.93;6.68;;;717.40;1715.20;;;;;;5058650;28;20190;-72
2023/06/26 09:04:56;;;;;;;15.23;6.40;;;717.40;1638.40;;;;;;5084990;28;20499;-72
2023/06/26 09:07:21;;;;;;;9.77;5.88;;;717.60;1715.20;;;;;;5078634;28;20062;-71
2023/06/26 09:09:47;;;;;;;10.48;5.82;;;717.70;1612.80;;;;;;5077692;28;20033;-73
2023/06/26 09:12:13;;;;;;;10.43;6.05;;;717.70;1638.40;;;;;;5083580;28;20032;-74
2023/06/26 09:14:39;;;;;;;8.00;5.63;;;717.70;1638.40;;;;;;5075462;28;20591;-73
2023/06/26 09:17:05;;;;;;;10.63;5.32;;;717.70;1536.00;;;;;;5082620;28;20107;-73
2023/06/26 09:19:30;;;;;;;8.07;5.15;;;742.40;1664.00;;;;;;5078584;28;20025;-75
2023/06/26 09:21:57;;;;;;;8.02;5.72;;;742.50;1587.20;;;;;;5082811;28;20033;-75
2023/06/26 09:24:22;;;;;;;12.23;6.63;;;742.50;1587.20;;;;;;5075279;28;20036;-74
2023/06/26 09:26:49;;;;;;;8.90;6.28;;;742.60;1638.40;;;;;;5078612;28;20048;-71
2023/06/26 09:29:17;;;;;;;10.40;7.68;;;742.80;1587.20;;;;;;5078066;28;20055;-73
2023/06/26 09:31:44;;;;;;;7.22;5.55;;;742.80;1561.60;;;;;;5070659;28;20028;-72
2023/06/26 09:34:10;;;;;;;7.70;5.95;;;742.90;1587.20;;;;;;5082400;28;20024;-73
2023/06/26 09:36:36;;;;;;;11.73;7.07;;;742.90;1561.60;;;;;;5086154;28;20017;-72
2023/06/26 09:39:10;;;;;;;11.23;6.13;;;742.90;1536.00;;;;;;5083729;28;20024;-73
2023/06/26 09:41:38;;;;;;;7.53;5.95;;;743.10;1484.80;;;;;;5075711;28;20082;-73
2023/06/26 09:44:05;;;;;;;8.60;5.25;;;743.10;1484.80;;;;;;5079377;28;20031;-72
2023/06/26 09:46:31;;;;;;;7.35;5.38;;;743.30;1484.80;;;;;;5079731;28;20033;-76
2023/06/26 09:49:04;;;;;;;8.02;6.00;;;768.10;1510.40;;;;;;5083747;28;20550;-74
2023/06/26 09:51:32;;;;;;;7.43;5.30;;;768.10;1433.60;;;;;;5074853;28;20535;-72
2023/06/26 09:53:58;;;;;;;8.57;5.55;;;768.20;1433.60;;;;;;5080794;28;20035;-72
2023/06/26 09:56:24;;;;;;;10.73;6.13;;;768.40;1484.80;;;;;;5080814;28;20132;-74
2023/06/26 09:58:50;;;;;;;7.60;5.72;;;768.40;1433.60;;;;;;5078498;28;20442;-77
2023/06/26 10:01:16;;;;;;;8.05;5.57;;;768.60;1459.20;;;;;;5078800;28;20139;-80
2023/06/26 10:03:43;;;;;;;8.57;5.55;;;768.60;1356.80;;;;;;5077538;28;20020;-74
2023/06/26 10:06:11;;;;;;;7.20;5.30;;;768.60;1459.20;;;;;;5084779;28;20028;-72
2023/06/26 10:08:39;;;;;;;8.30;5.85;;;768.80;1459.20;;;;;;5079237;28;20046;-73
2023/06/26 10:11:06;;;;;;;8.57;5.45;;;768.80;1433.60;;;;;;5086304;28;20355;-73
2023/06/26 10:13:38;;;;;;;7.03;5.13;;;768.80;1408.00;;;;;;5076021;28;20075;-75
2023/06/26 10:16:05;;;;;;;8.07;5.63;;;793.70;1433.60;;;;;;5081152;28;20021;-73
2023/06/26 10:18:34;;;;;;;9.38;5.53;;;793.80;1382.40;;;;;;5080792;28;20032;-73
2023/06/26 10:21:03;;;;;;;7.85;5.25;;;793.60;1356.80;;;;;;5079968;28;20081;-76
2023/06/26 10:23:30;;;;;;;7.43;5.40;;;793.90;1356.80;;;;;;5067415;28;20462;-72
2023/06/26 10:25:58;;;;;;;6.95;4.82;;;794.40;1459.20;;;;;;5079514;28;20035;-72
2023/06/26 10:28:25;;;;;;;10.20;5.20;;;794.00;1408.00;;;;;;5080686;28;20035;-74
2023/06/26 10:30:52;;;;;;;7.60;5.20;;;794.20;1433.60;;;;;;5084715;28;20017;-72
2023/06/26 10:33:20;;;;;;;8.35;5.10;;;794.40;1408.00;;;;;;5080433;28;20032;-72
2023/06/26 10:35:46;;;;;;;6.38;4.72;;;794.30;1305.60;;;;;;5084566;28;20079;-72
2023/06/26 10:38:12;;;;;;;9.32;5.40;;;794.40;1305.60;;;;;;5084324;28;20123;-72
2023/06/26 10:40:55;;;;;;;5.65;4.45;;;794.50;1356.80;;;;;;5079665;28;20068;-72
2023/06/26 10:43:30;;;;;;;7.28;4.78;;;819.20;1382.40;;;;;;5082580;28;20028;-74
2023/06/26 10:45:55;;;;;;;6.95;5.10;;;794.50;1382.40;;;;;;5078707;28;20036;-73
2023/06/26 10:48:22;;;;;;;6.25;4.70;;;794.20;1331.20;;;;;;5074717;28;20382;-73
2023/06/26 10:50:49;;;;;;;8.35;5.50;;;794.20;1382.40;;;;;;5080831;28;20448;-75
2023/06/26 10:53:22;;;;;;;17.27;11.52;;;794.50;1408.00;;;;;;5077726;28;20035;-74
2023/06/26 10:56:00;;;;;;;16.13;5.97;;;793.90;1433.60;;;;;;5078210;28;20051;-74
2023/06/26 10:58:41;;;;;;;7.95;4.93;;;794.10;1408.00;;;;;;5080508;28;20087;-72
2023/06/26 11:01:15;;;;;;;7.82;5.93;;;794.50;1408.00;;;;;;5077665;28;20099;-73
2023/06/26 11:04:02;;;;;;;9.20;5.28;;;819.40;1356.80;;;;;;5073390;28;20025;-74
2023/06/26 11:06:28;;;;;;;6.78;4.82;;;819.80;1382.40;;;;;;5084216;28;20040;-73
2023/06/26 11:09:00;;;;;;;7.00;5.18;;;819.50;1280.00;;;;;;5077583;28;20500;-73
2023/06/26 11:11:50;;;;;;;7.88;5.63;;;819.30;1305.60;;;;;;5084686;28;20028;-75
2023/06/26 11:14:16;;;;;;;7.30;5.15;;;794.40;1305.60;;;;;;5070163;28;20056;-71
2023/06/26 11:16:42;;;;;;;7.32;5.25;;;819.40;1331.20;;;;;;5082774;28;20067;-73
2023/06/26 11:19:09;;;;;;;7.63;4.70;;;819.40;1305.60;;;;;;5083516;28;20028;-73
2023/06/26 11:21:40;;;;;;;7.60;5.60;;;819.30;1356.80;;;;;;5076949;28;20032;-73
2023/06/26 11:24:09;;;;;;;6.03;4.60;;;819.50;1356.80;;;;;;5082426;28;20029;-73
2023/06/26 11:26:39;;;;;;;8.70;5.10;;;819.30;1408.00;;;;;;5080567;28;20550;-74
2023/06/26 11:29:05;;;;;;;6.13;4.38;;;819.30;1382.40;;;;;;5082347;28;20497;-72
2023/06/26 11:31:37;;;;;;;6.68;4.25;;;794.50;1356.80;;;;;;5081919;28;20071;-73
2023/06/26 11:34:05;;;;;;;7.20;4.38;;;794.10;1382.40;;;;;;5085283;28;20555;-73
2023/06/26 11:36:31;;;;;;;8.07;4.75;;;793.90;1433.60;;;;;;5071956;28;20402;-73
2023/06/26 11:39:08;;;;;;;8.25;4.28;;;793.60;1459.20;;;;;;5083085;28;20023;-77
2023/06/26 11:41:35;;;;;;;7.05;4.88;;;768.80;1459.20;;;;;;5085451;28;20020;-73
2023/06/26 11:44:09;;;;;;;7.80;5.03;;;768.60;1484.80;;;;;;5077099;28;20107;-73
2023/06/26 11:46:36;;;;;;;7.60;4.70;;;768.40;1510.40;;;;;;5076943;28;20033;-73
2023/06/26 11:49:08;;;;;;;7.72;5.13;;;768.20;1510.40;;;;;;5074838;28;20059;-73
2023/06/26 11:51:35;;;;;;;8.07;4.75;;;768.20;1510.40;;;;;;5078101;28;20024;-73
2023/06/26 11:54:05;;;;;;;8.05;5.03;;;768.50;1459.20;;;;;;5084924;28;20073;-73
2023/06/26 11:56:31;;;;;;;7.68;5.38;;;768.40;1459.20;;;;;;5086711;28;20472;-72
2023/06/26 11:59:08;;;;;;;7.43;4.72;;;768.40;1484.80;;;;;;5079775;28;20132;-73
2023/06/26 12:01:40;;;;;;;7.78;5.13;;;768.40;1510.40;;;;;;5076326;28;20024;-73
2023/06/26 12:04:08;;;;;;;8.52;5.30;;;768.30;1510.40;;;;;;5082888;28;20042;-73
2023/06/26 12:06:42;;;;;;;9.75;4.97;;;768.10;1561.60;;;;;;5079386;28;20075;-75
2023/06/26 12:09:11;;;;;;;7.97;5.03;;;768.50;1587.20;;;;;;5076935;28;20399;-72